sensor_id;sensor_type;location;lat;lon;timestamp;temperature;humidity
39017;DHT22;24784;45.582;5.276;2024-03-22T00:01:10;10.90;99.90
39017;DHT22;24784;45.582;5.276;2024-03-22T00:03:36;10.80;99.90
39017;DHT22;24784;45.582;5.276;2024-03-22T00:06:01;10.80;99.90
39017;DHT22;24784;45.582;5.276;2024-03-22T00:08:27;10.80;99.90
39017;DHT22;24784;45.582;5.276;2024-03-22T00:10:52;10.70;99.90
39017;DHT22;24784;45.582;5.276;2024-03-22T00:13:19;10.70;99.90
39017;DHT22;24784;45.582;5.276;2024-03-22T00:15:45;10.60;99.90
39017;DHT22;24784;45.582;5.276;2024-03-22T00:18:11;10.60;99.90
39017;DHT22;24784;45.582;5.276;2024-03-22T00:20:36;10.60;99.90
39017;DHT22;24784;45.582;5.276;2024-03-22T00:23:02;10.60;99.90
39017;DHT22;24784;45.582;5.276;2024-03-22T00:25:28;10.50;99.90
39017;DHT22;24784;45.582;5.276;2024-03-22T00:27:55;10.50;99.90
39017;DHT22;24784;45.582;5.276;2024-03-22T00:30:20;10.50;99.90
39017;DHT22;24784;45.582;5.276;2024-03-22T00:32:46;10.40;99.90
39017;DHT22;24784;45.582;5.276;2024-03-22T00:35:12;10.50;99.90
39017;DHT22;24784;45.582;5.276;2024-03-22T00:37:38;10.60;99.90
39017;DHT22;24784;45.582;5.276;2024-03-22T00:40:04;10.50;99.90
39017;DHT22;24784;45.582;5.276;2024-03-22T00:42:30;10.60;99.90
39017;DHT22;24784;45.582;5.276;2024-03-22T00:44:56;10.60;99.90
39017;DHT22;24784;45.582;5.276;2024-03-22T00:47:23;10.70;99.90
39017;DHT22;24784;45.582;5.276;2024-03-22T00:49:49;10.60;99.90
39017;DHT22;24784;45.582;5.276;2024-03-22T00:52:15;10.60;99.90
39017;DHT22;24784;45.582;5.276;2024-03-22T00:54:40;10.70;99.90
39017;DHT22;24784;45.582;5.276;2024-03-22T00:57:06;10.70;99.90
39017;DHT22;24784;45.582;5.276;2024-03-22T00:59:32;10.50;99.90
39017;DHT22;24784;45.582;5.276;2024-03-22T01:01:58;10.60;99.90
39017;DHT22;24784;45.582;5.276;2024-03-22T01:04:23;10.60;99.90
39017;DHT22;24784;45.582;5.276;2024-03-22T01:06:49;10.60;99.90
39017;DHT22;24784;45.582;5.276;2024-03-22T01:09:15;10.80;99.90
39017;DHT22;24784;45.582;5.276;2024-03-22T01:11:40;10.70;99.90
39017;DHT22;24784;45.582;5.276;2024-03-22T01:14:06;10.80;99.90
39017;DHT22;24784;45.582;5.276;2024-03-22T01:16:32;10.70;99.90
39017;DHT22;24784;45.582;5.276;2024-03-22T01:18:57;10.60;99.90
39017;DHT22;24784;45.582;5.276;2024-03-22T01:21:23;10.70;99.90
39017;DHT22;24784;45.582;5.276;2024-03-22T01:23:52;10.40;99.90
39017;DHT22;24784;45.582;5.276;2024-03-22T01:26:17;10.40;99.90
39017;DHT22;24784;45.582;5.276;2024-03-22T01:28:43;10.40;99.90
39017;DHT22;24784;45.582;5.276;2024-03-22T01:31:09;10.50;99.90
39017;DHT22;24784;45.582;5.276;2024-03-22T01:33:35;10.50;99.90
39017;DHT22;24784;45.582;5.276;2024-03-22T01:36:00;10.50;99.90
39017;DHT22;24784;45.582;5.276;2024-03-22T01:38:26;10.40;99.90
39017;DHT22;24784;45.582;5.276;2024-03-22T01:40:52;10.40;99.90
39017;DHT22;24784;45.582;5.276;2024-03-22T01:43:18;10.40;99.90
39017;DHT22;24784;45.582;5.276;2024-03-22T01:45:44;10.40;99.90
39017;DHT22;24784;45.582;5.276;2024-03-22T01:48:10;10.40;99.90
39017;DHT22;24784;45.582;5.276;2024-03-22T01:50:36;10.40;99.90
39017;DHT22;24784;45.582;5.276;2024-03-22T01:53:02;10.40;99.90
39017;DHT22;24784;45.582;5.276;2024-03-22T01:55:27;10.40;99.90
39017;DHT22;24784;45.582;5.276;2024-03-22T01:57:55;10.40;99.90
39017;DHT22;24784;45.582;5.276;2024-03-22T02:00:21;10.30;99.90
39017;DHT22;24784;45.582;5.276;2024-03-22T02:02:47;10.30;99.90
39017;DHT22;24784;45.582;5.276;2024-03-22T02:05:15;10.30;99.90
39017;DHT22;24784;45.582;5.276;2024-03-22T02:07:42;10.30;99.90
39017;DHT22;24784;45.582;5.276;2024-03-22T02:10:09;10.30;99.90
39017;DHT22;24784;45.582;5.276;2024-03-22T02:12:37;10.40;99.90
39017;DHT22;24784;45.582;5.276;2024-03-22T02:15:03;10.30;99.90
39017;DHT22;24784;45.582;5.276;2024-03-22T02:17:29;10.40;99.90
39017;DHT22;24784;45.582;5.276;2024-03-22T02:19:54;10.30;99.90
39017;DHT22;24784;45.582;5.276;2024-03-22T02:22:20;10.30;99.90
39017;DHT22;24784;45.582;5.276;2024-03-22T02:24:46;10.30;99.90
39017;DHT22;24784;45.582;5.276;2024-03-22T02:27:11;10.30;99.90
39017;DHT22;24784;45.582;5.276;2024-03-22T02:29:37;10.30;99.90
39017;DHT22;24784;45.582;5.276;2024-03-22T02:32:03;10.30;99.90
39017;DHT22;24784;45.582;5.276;2024-03-22T02:34:29;10.30;99.90
39017;DHT22;24784;45.582;5.276;2024-03-22T02:36:54;10.20;99.90
39017;DHT22;24784;45.582;5.276;2024-03-22T02:39:20;10.20;99.90
39017;DHT22;24784;45.582;5.276;2024-03-22T02:41:46;10.20;99.90
39017;DHT22;24784;45.582;5.276;2024-03-22T02:44:11;10.20;99.90
39017;DHT22;24784;45.582;5.276;2024-03-22T02:46:37;10.20;99.90
39017;DHT22;24784;45.582;5.276;2024-03-22T02:49:03;10.20;99.90
39017;DHT22;24784;45.582;5.276;2024-03-22T02:51:28;10.20;99.90
39017;DHT22;24784;45.582;5.276;2024-03-22T02:53:54;10.20;99.90
39017;DHT22;24784;45.582;5.276;2024-03-22T02:56:20;10.10;99.90
39017;DHT22;24784;45.582;5.276;2024-03-22T02:58:45;10.20;99.90
39017;DHT22;24784;45.582;5.276;2024-03-22T03:01:11;10.20;99.90
39017;DHT22;24784;45.582;5.276;2024-03-22T03:03:36;10.20;99.90
39017;DHT22;24784;45.582;5.276;2024-03-22T03:06:02;10.30;99.90
39017;DHT22;24784;45.582;5.276;2024-03-22T03:08:28;10.20;99.90
39017;DHT22;24784;45.582;5.276;2024-03-22T03:10:53;10.20;99.90
39017;DHT22;24784;45.582;5.276;2024-03-22T03:13:19;10.20;99.90
39017;DHT22;24784;45.582;5.276;2024-03-22T03:15:45;10.20;99.90
39017;DHT22;24784;45.582;5.276;2024-03-22T03:18:10;10.20;99.90
39017;DHT22;24784;45.582;5.276;2024-03-22T03:20:36;10.20;99.90
39017;DHT22;24784;45.582;5.276;2024-03-22T03:23:03;10.20;99.90
39017;DHT22;24784;45.582;5.276;2024-03-22T03:25:28;10.20;99.90
39017;DHT22;24784;45.582;5.276;2024-03-22T03:27:54;10.10;99.90
39017;DHT22;24784;45.582;5.276;2024-03-22T03:30:20;10.20;99.90
39017;DHT22;24784;45.582;5.276;2024-03-22T03:32:45;10.20;99.90
39017;DHT22;24784;45.582;5.276;2024-03-22T03:35:11;10.10;99.90
39017;DHT22;24784;45.582;5.276;2024-03-22T03:37:36;10.20;99.90
39017;DHT22;24784;45.582;5.276;2024-03-22T03:40:02;10.20;99.90
39017;DHT22;24784;45.582;5.276;2024-03-22T03:42:28;10.10;99.90
39017;DHT22;24784;45.582;5.276;2024-03-22T03:44:53;10.10;99.90
39017;DHT22;24784;45.582;5.276;2024-03-22T03:47:19;10.10;99.90
39017;DHT22;24784;45.582;5.276;2024-03-22T03:49:45;10.10;99.90
39017;DHT22;24784;45.582;5.276;2024-03-22T03:52:11;10.10;99.90
39017;DHT22;24784;45.582;5.276;2024-03-22T03:54:37;10.10;99.90
39017;DHT22;24784;45.582;5.276;2024-03-22T03:57:02;10.10;99.90
39017;DHT22;24784;45.582;5.276;2024-03-22T03:59:28;10.10;99.90
39017;DHT22;24784;45.582;5.276;2024-03-22T04:01:54;10.20;99.90
39017;DHT22;24784;45.582;5.276;2024-03-22T04:04:20;10.20;99.90
39017;DHT22;24784;45.582;5.276;2024-03-22T04:06:45;10.10;99.90
39017;DHT22;24784;45.582;5.276;2024-03-22T04:09:11;10.10;99.90
39017;DHT22;24784;45.582;5.276;2024-03-22T04:11:37;10.10;99.90
39017;DHT22;24784;45.582;5.276;2024-03-22T04:14:03;10.00;99.90
39017;DHT22;24784;45.582;5.276;2024-03-22T04:16:29;10.10;99.90
39017;DHT22;24784;45.582;5.276;2024-03-22T04:18:55;10.00;99.90
39017;DHT22;24784;45.582;5.276;2024-03-22T04:21:20;10.00;99.90
39017;DHT22;24784;45.582;5.276;2024-03-22T04:23:46;10.00;99.90
39017;DHT22;24784;45.582;5.276;2024-03-22T04:26:11;10.00;99.90
39017;DHT22;24784;45.582;5.276;2024-03-22T04:28:37;10.00;99.90
39017;DHT22;24784;45.582;5.276;2024-03-22T04:31:05;10.00;99.90
39017;DHT22;24784;45.582;5.276;2024-03-22T04:33:32;9.90;99.90
39017;DHT22;24784;45.582;5.276;2024-03-22T04:35:58;10.00;99.90
39017;DHT22;24784;45.582;5.276;2024-03-22T04:38:25;9.90;99.90
39017;DHT22;24784;45.582;5.276;2024-03-22T04:40:51;9.90;99.90
39017;DHT22;24784;45.582;5.276;2024-03-22T04:43:17;9.80;99.90
39017;DHT22;24784;45.582;5.276;2024-03-22T04:45:44;9.80;99.90
39017;DHT22;24784;45.582;5.276;2024-03-22T04:48:12;9.80;99.90
39017;DHT22;24784;45.582;5.276;2024-03-22T04:50:37;9.80;99.90
39017;DHT22;24784;45.582;5.276;2024-03-22T04:53:03;9.80;99.90
39017;DHT22;24784;45.582;5.276;2024-03-22T04:55:30;9.80;99.90
39017;DHT22;24784;45.582;5.276;2024-03-22T04:57:56;9.70;99.90
39017;DHT22;24784;45.582;5.276;2024-03-22T05:00:22;9.70;99.90
39017;DHT22;24784;45.582;5.276;2024-03-22T05:02:47;9.70;99.90
39017;DHT22;24784;45.582;5.276;2024-03-22T05:05:13;9.70;99.90
39017;DHT22;24784;45.582;5.276;2024-03-22T05:07:39;9.60;99.90
39017;DHT22;24784;45.582;5.276;2024-03-22T05:10:05;9.60;99.90
39017;DHT22;24784;45.582;5.276;2024-03-22T05:12:31;9.50;99.90
39017;DHT22;24784;45.582;5.276;2024-03-22T05:14:56;9.50;99.90
39017;DHT22;24784;45.582;5.276;2024-03-22T05:17:22;9.60;99.90
39017;DHT22;24784;45.582;5.276;2024-03-22T05:19:47;9.70;99.90
39017;DHT22;24784;45.582;5.276;2024-03-22T05:22:13;9.50;99.90
39017;DHT22;24784;45.582;5.276;2024-03-22T05:24:39;9.40;99.90
39017;DHT22;24784;45.582;5.276;2024-03-22T05:27:04;9.50;99.90
39017;DHT22;24784;45.582;5.276;2024-03-22T05:29:30;9.50;99.90
39017;DHT22;24784;45.582;5.276;2024-03-22T05:31:56;9.50;99.90
39017;DHT22;24784;45.582;5.276;2024-03-22T05:34:22;9.50;99.90
39017;DHT22;24784;45.582;5.276;2024-03-22T05:36:48;9.40;99.90
39017;DHT22;24784;45.582;5.276;2024-03-22T05:39:14;9.40;99.90
39017;DHT22;24784;45.582;5.276;2024-03-22T05:41:40;9.40;99.90
39017;DHT22;24784;45.582;5.276;2024-03-22T05:44:06;9.40;99.90
39017;DHT22;24784;45.582;5.276;2024-03-22T05:46:31;9.40;99.90
39017;DHT22;24784;45.582;5.276;2024-03-22T05:48:57;9.40;99.90
39017;DHT22;24784;45.582;5.276;2024-03-22T05:51:24;9.40;99.90
39017;DHT22;24784;45.582;5.276;2024-03-22T05:53:50;9.40;99.90
39017;DHT22;24784;45.582;5.276;2024-03-22T05:56:15;9.30;99.90
39017;DHT22;24784;45.582;5.276;2024-03-22T05:58:41;9.40;99.90
39017;DHT22;24784;45.582;5.276;2024-03-22T06:01:07;9.40;99.90
39017;DHT22;24784;45.582;5.276;2024-03-22T06:03:32;9.40;99.90
39017;DHT22;24784;45.582;5.276;2024-03-22T06:05:59;9.40;99.90
39017;DHT22;24784;45.582;5.276;2024-03-22T06:08:28;9.40;99.90
39017;DHT22;24784;45.582;5.276;2024-03-22T06:10:55;9.40;99.90
39017;DHT22;24784;45.582;5.276;2024-03-22T06:13:24;9.40;99.90
39017;DHT22;24784;45.582;5.276;2024-03-22T06:15:49;9.50;99.90
39017;DHT22;24784;45.582;5.276;2024-03-22T06:18:16;9.50;99.90
39017;DHT22;24784;45.582;5.276;2024-03-22T06:20:41;9.50;99.90
39017;DHT22;24784;45.582;5.276;2024-03-22T06:23:08;9.50;99.90
39017;DHT22;24784;45.582;5.276;2024-03-22T06:25:34;9.50;99.90
39017;DHT22;24784;45.582;5.276;2024-03-22T06:28:00;9.50;99.90
39017;DHT22;24784;45.582;5.276;2024-03-22T06:30:25;9.50;99.90
39017;DHT22;24784;45.582;5.276;2024-03-22T06:32:51;9.60;99.90
39017;DHT22;24784;45.582;5.276;2024-03-22T06:35:17;9.60;99.90
39017;DHT22;24784;45.582;5.276;2024-03-22T06:37:43;9.60;99.90
39017;DHT22;24784;45.582;5.276;2024-03-22T06:40:09;9.60;99.90
39017;DHT22;24784;45.582;5.276;2024-03-22T06:42:35;9.70;99.90
39017;DHT22;24784;45.582;5.276;2024-03-22T06:45:01;9.60;99.90
39017;DHT22;24784;45.582;5.276;2024-03-22T06:47:27;9.70;99.90
39017;DHT22;24784;45.582;5.276;2024-03-22T06:49:53;9.70;99.90
39017;DHT22;24784;45.582;5.276;2024-03-22T06:52:18;9.70;99.90
39017;DHT22;24784;45.582;5.276;2024-03-22T06:54:45;9.70;99.90
39017;DHT22;24784;45.582;5.276;2024-03-22T06:57:11;9.80;99.90
39017;DHT22;24784;45.582;5.276;2024-03-22T06:59:37;9.80;99.90
39017;DHT22;24784;45.582;5.276;2024-03-22T07:02:02;9.80;99.90
39017;DHT22;24784;45.582;5.276;2024-03-22T07:04:28;9.80;99.90
39017;DHT22;24784;45.582;5.276;2024-03-22T07:06:53;9.90;99.90
39017;DHT22;24784;45.582;5.276;2024-03-22T07:09:19;9.80;99.90
39017;DHT22;24784;45.582;5.276;2024-03-22T07:11:45;9.90;99.90
39017;DHT22;24784;45.582;5.276;2024-03-22T07:14:10;9.90;99.90
39017;DHT22;24784;45.582;5.276;2024-03-22T07:16:36;10.00;99.90
39017;DHT22;24784;45.582;5.276;2024-03-22T07:19:02;9.90;99.90
39017;DHT22;24784;45.582;5.276;2024-03-22T07:21:29;10.00;99.90
39017;DHT22;24784;45.582;5.276;2024-03-22T07:23:55;9.90;99.90
39017;DHT22;24784;45.582;5.276;2024-03-22T07:26:20;9.90;99.90
39017;DHT22;24784;45.582;5.276;2024-03-22T07:28:46;9.90;99.90
39017;DHT22;24784;45.582;5.276;2024-03-22T07:31:12;10.10;99.90
39017;DHT22;24784;45.582;5.276;2024-03-22T07:33:37;10.10;99.90
39017;DHT22;24784;45.582;5.276;2024-03-22T07:36:05;10.00;99.90
39017;DHT22;24784;45.582;5.276;2024-03-22T07:38:30;10.10;99.90
39017;DHT22;24784;45.582;5.276;2024-03-22T07:40:56;10.10;99.90
39017;DHT22;24784;45.582;5.276;2024-03-22T07:43:22;10.10;99.90
39017;DHT22;24784;45.582;5.276;2024-03-22T07:45:47;10.10;99.90
39017;DHT22;24784;45.582;5.276;2024-03-22T07:48:13;10.20;99.90
39017;DHT22;24784;45.582;5.276;2024-03-22T07:50:39;10.20;99.90
39017;DHT22;24784;45.582;5.276;2024-03-22T07:53:04;10.30;99.90
39017;DHT22;24784;45.582;5.276;2024-03-22T07:55:30;10.40;99.90
39017;DHT22;24784;45.582;5.276;2024-03-22T07:57:56;10.50;99.90
39017;DHT22;24784;45.582;5.276;2024-03-22T08:00:23;10.60;99.90
39017;DHT22;24784;45.582;5.276;2024-03-22T08:02:51;10.60;99.90
39017;DHT22;24784;45.582;5.276;2024-03-22T08:05:16;10.80;99.90
39017;DHT22;24784;45.582;5.276;2024-03-22T08:07:42;10.80;99.90
39017;DHT22;24784;45.582;5.276;2024-03-22T08:10:09;10.90;99.90
39017;DHT22;24784;45.582;5.276;2024-03-22T08:12:35;10.90;99.90
39017;DHT22;24784;45.582;5.276;2024-03-22T08:15:00;11.00;99.90
39017;DHT22;24784;45.582;5.276;2024-03-22T08:17:26;11.10;99.90
39017;DHT22;24784;45.582;5.276;2024-03-22T08:19:51;11.30;99.90
39017;DHT22;24784;45.582;5.276;2024-03-22T08:22:17;11.20;99.90
39017;DHT22;24784;45.582;5.276;2024-03-22T08:24:43;11.30;99.90
39017;DHT22;24784;45.582;5.276;2024-03-22T08:27:08;11.40;99.90
39017;DHT22;24784;45.582;5.276;2024-03-22T08:29:34;11.50;99.90
39017;DHT22;24784;45.582;5.276;2024-03-22T08:32:00;11.60;99.90
39017;DHT22;24784;45.582;5.276;2024-03-22T08:34:28;11.70;99.90
39017;DHT22;24784;45.582;5.276;2024-03-22T08:36:54;11.80;99.90
39017;DHT22;24784;45.582;5.276;2024-03-22T08:39:19;11.90;99.90
39017;DHT22;24784;45.582;5.276;2024-03-22T08:41:45;12.10;99.90
39017;DHT22;24784;45.582;5.276;2024-03-22T08:44:11;12.20;99.90
39017;DHT22;24784;45.582;5.276;2024-03-22T08:46:37;12.30;99.90
39017;DHT22;24784;45.582;5.276;2024-03-22T08:49:02;12.50;99.90
39017;DHT22;24784;45.582;5.276;2024-03-22T08:51:28;12.60;99.90
39017;DHT22;24784;45.582;5.276;2024-03-22T08:53:55;12.80;99.90
39017;DHT22;24784;45.582;5.276;2024-03-22T08:56:20;12.90;99.90
39017;DHT22;24784;45.582;5.276;2024-03-22T08:58:46;13.20;99.90
39017;DHT22;24784;45.582;5.276;2024-03-22T09:01:11;13.20;99.90
39017;DHT22;24784;45.582;5.276;2024-03-22T09:03:37;13.30;99.90
39017;DHT22;24784;45.582;5.276;2024-03-22T09:06:03;13.40;99.90
39017;DHT22;24784;45.582;5.276;2024-03-22T09:08:29;13.40;99.90
39017;DHT22;24784;45.582;5.276;2024-03-22T09:10:55;13.50;99.90
39017;DHT22;24784;45.582;5.276;2024-03-22T09:13:20;13.60;99.90
39017;DHT22;24784;45.582;5.276;2024-03-22T09:15:46;13.70;99.90
39017;DHT22;24784;45.582;5.276;2024-03-22T09:18:13;13.80;99.90
39017;DHT22;24784;45.582;5.276;2024-03-22T09:20:38;13.90;99.90
39017;DHT22;24784;45.582;5.276;2024-03-22T09:23:04;14.00;99.90
39017;DHT22;24784;45.582;5.276;2024-03-22T09:25:29;14.10;99.90
39017;DHT22;24784;45.582;5.276;2024-03-22T09:27:55;14.40;99.90
39017;DHT22;24784;45.582;5.276;2024-03-22T09:30:21;14.50;99.90
39017;DHT22;24784;45.582;5.276;2024-03-22T09:32:47;14.60;99.90
39017;DHT22;24784;45.582;5.276;2024-03-22T09:35:13;14.70;99.90
39017;DHT22;24784;45.582;5.276;2024-03-22T09:37:43;14.80;99.90
39017;DHT22;24784;45.582;5.276;2024-03-22T09:40:09;14.90;99.90
39017;DHT22;24784;45.582;5.276;2024-03-22T09:42:37;15.00;99.90
39017;DHT22;24784;45.582;5.276;2024-03-22T09:45:08;15.00;99.90
39017;DHT22;24784;45.582;5.276;2024-03-22T09:47:36;15.10;99.90
39017;DHT22;24784;45.582;5.276;2024-03-22T09:50:06;15.10;99.90
39017;DHT22;24784;45.582;5.276;2024-03-22T09:52:33;15.00;99.90
39017;DHT22;24784;45.582;5.276;2024-03-22T09:54:59;15.20;99.90
39017;DHT22;24784;45.582;5.276;2024-03-22T09:57:25;15.40;99.90
39017;DHT22;24784;45.582;5.276;2024-03-22T09:59:51;15.50;99.90
39017;DHT22;24784;45.582;5.276;2024-03-22T10:02:17;15.60;99.70
39017;DHT22;24784;45.582;5.276;2024-03-22T10:04:43;15.90;99.50
39017;DHT22;24784;45.582;5.276;2024-03-22T10:07:09;16.20;98.70
39017;DHT22;24784;45.582;5.276;2024-03-22T10:09:35;16.30;98.40
39017;DHT22;24784;45.582;5.276;2024-03-22T10:12:02;16.30;98.20
39017;DHT22;24784;45.582;5.276;2024-03-22T10:14:29;16.30;97.60
39017;DHT22;24784;45.582;5.276;2024-03-22T10:16:55;16.30;97.70
39017;DHT22;24784;45.582;5.276;2024-03-22T10:19:21;16.50;96.70
39017;DHT22;24784;45.582;5.276;2024-03-22T10:22:03;16.70;96.20
39017;DHT22;24784;45.582;5.276;2024-03-22T10:24:30;16.70;96.80
39017;DHT22;24784;45.582;5.276;2024-03-22T10:26:56;16.70;96.00
39017;DHT22;24784;45.582;5.276;2024-03-22T10:29:22;16.90;95.00
39017;DHT22;24784;45.582;5.276;2024-03-22T10:31:49;17.00;94.70
39017;DHT22;24784;45.582;5.276;2024-03-22T10:34:16;17.10;94.20
39017;DHT22;24784;45.582;5.276;2024-03-22T10:36:44;17.20;94.00
39017;DHT22;24784;45.582;5.276;2024-03-22T10:39:11;17.20;93.60
39017;DHT22;24784;45.582;5.276;2024-03-22T10:41:38;17.70;97.10
39017;DHT22;24784;45.582;5.276;2024-03-22T10:44:03;17.50;93.00
39017;DHT22;24784;45.582;5.276;2024-03-22T10:46:30;17.50;90.60
39017;DHT22;24784;45.582;5.276;2024-03-22T10:49:00;17.60;91.10
39017;DHT22;24784;45.582;5.276;2024-03-22T10:51:29;17.70;91.60
39017;DHT22;24784;45.582;5.276;2024-03-22T10:53:57;17.70;92.70
39017;DHT22;24784;45.582;5.276;2024-03-22T10:56:24;18.00;91.40
39017;DHT22;24784;45.582;5.276;2024-03-22T10:58:50;18.10;87.90
39017;DHT22;24784;45.582;5.276;2024-03-22T11:01:25;17.90;86.90
39017;DHT22;24784;45.582;5.276;2024-03-22T11:03:51;17.90;87.30
39017;DHT22;24784;45.582;5.276;2024-03-22T11:06:20;18.00;88.70
39017;DHT22;24784;45.582;5.276;2024-03-22T11:08:51;18.30;90.40
39017;DHT22;24784;45.582;5.276;2024-03-22T11:11:18;18.40;90.20
39017;DHT22;24784;45.582;5.276;2024-03-22T11:13:47;18.50;90.30
39017;DHT22;24784;45.582;5.276;2024-03-22T11:16:15;18.50;90.50
39017;DHT22;24784;45.582;5.276;2024-03-22T11:18:41;18.50;90.60
39017;DHT22;24784;45.582;5.276;2024-03-22T11:21:07;18.60;90.60
39017;DHT22;24784;45.582;5.276;2024-03-22T11:23:37;18.70;90.50
39017;DHT22;24784;45.582;5.276;2024-03-22T11:26:03;18.80;89.50
39017;DHT22;24784;45.582;5.276;2024-03-22T11:28:30;18.70;87.90
39017;DHT22;24784;45.582;5.276;2024-03-22T11:30:56;18.80;87.40
39017;DHT22;24784;45.582;5.276;2024-03-22T11:33:21;18.80;87.10
39017;DHT22;24784;45.582;5.276;2024-03-22T11:35:47;18.70;86.40
39017;DHT22;24784;45.582;5.276;2024-03-22T11:38:15;18.70;86.90
39017;DHT22;24784;45.582;5.276;2024-03-22T11:40:42;18.80;87.60
39017;DHT22;24784;45.582;5.276;2024-03-22T11:43:08;18.90;86.10
39017;DHT22;24784;45.582;5.276;2024-03-22T11:45:34;18.70;84.90
39017;DHT22;24784;45.582;5.276;2024-03-22T11:48:03;18.80;86.40
39017;DHT22;24784;45.582;5.276;2024-03-22T11:50:29;19.00;86.80
39017;DHT22;24784;45.582;5.276;2024-03-22T11:52:56;18.90;85.60
39017;DHT22;24784;45.582;5.276;2024-03-22T11:55:21;19.00;83.80
39017;DHT22;24784;45.582;5.276;2024-03-22T11:57:50;19.10;84.90
39017;DHT22;24784;45.582;5.276;2024-03-22T12:00:18;19.00;84.00
39017;DHT22;24784;45.582;5.276;2024-03-22T12:02:45;19.00;84.90
39017;DHT22;24784;45.582;5.276;2024-03-22T12:05:11;18.80;82.70
39017;DHT22;24784;45.582;5.276;2024-03-22T12:07:37;19.00;80.90
39017;DHT22;24784;45.582;5.276;2024-03-22T12:10:06;19.10;79.70
39017;DHT22;24784;45.582;5.276;2024-03-22T12:12:31;19.20;79.10
39017;DHT22;24784;45.582;5.276;2024-03-22T12:14:57;19.20;78.80
39017;DHT22;24784;45.582;5.276;2024-03-22T12:17:22;19.30;78.20
39017;DHT22;24784;45.582;5.276;2024-03-22T12:19:48;19.30;78.50
39017;DHT22;24784;45.582;5.276;2024-03-22T12:22:14;19.30;79.30
39017;DHT22;24784;45.582;5.276;2024-03-22T12:24:39;19.40;80.50
39017;DHT22;24784;45.582;5.276;2024-03-22T12:27:05;19.40;78.10
39017;DHT22;24784;45.582;5.276;2024-03-22T12:29:34;19.40;76.80
39017;DHT22;24784;45.582;5.276;2024-03-22T12:32:00;19.50;74.30
39017;DHT22;24784;45.582;5.276;2024-03-22T12:34:27;19.60;73.00
39017;DHT22;24784;45.582;5.276;2024-03-22T12:36:55;19.50;75.30
39017;DHT22;24784;45.582;5.276;2024-03-22T12:39:20;19.40;72.20
39017;DHT22;24784;45.582;5.276;2024-03-22T12:41:46;19.40;72.20
39017;DHT22;24784;45.582;5.276;2024-03-22T12:44:12;19.50;73.00
39017;DHT22;24784;45.582;5.276;2024-03-22T12:46:37;19.50;71.90
39017;DHT22;24784;45.582;5.276;2024-03-22T12:49:03;19.60;71.70
39017;DHT22;24784;45.582;5.276;2024-03-22T12:51:29;19.70;73.30
39017;DHT22;24784;45.582;5.276;2024-03-22T12:53:55;19.70;72.70
39017;DHT22;24784;45.582;5.276;2024-03-22T12:56:21;19.80;73.30
39017;DHT22;24784;45.582;5.276;2024-03-22T12:58:47;19.80;73.60
39017;DHT22;24784;45.582;5.276;2024-03-22T13:01:13;19.90;75.50
39017;DHT22;24784;45.582;5.276;2024-03-22T13:03:39;19.80;73.20
39017;DHT22;24784;45.582;5.276;2024-03-22T13:06:05;19.70;74.30
39017;DHT22;24784;45.582;5.276;2024-03-22T13:08:33;19.70;73.50
39017;DHT22;24784;45.582;5.276;2024-03-22T13:10:59;19.80;74.90
39017;DHT22;24784;45.582;5.276;2024-03-22T13:13:24;19.90;75.70
39017;DHT22;24784;45.582;5.276;2024-03-22T13:15:50;20.00;74.40
39017;DHT22;24784;45.582;5.276;2024-03-22T13:18:16;20.10;74.50
39017;DHT22;24784;45.582;5.276;2024-03-22T13:20:41;20.00;73.80
39017;DHT22;24784;45.582;5.276;2024-03-22T13:23:07;20.00;73.60
39017;DHT22;24784;45.582;5.276;2024-03-22T13:25:35;20.10;73.90
39017;DHT22;24784;45.582;5.276;2024-03-22T13:28:03;20.20;73.70
39017;DHT22;24784;45.582;5.276;2024-03-22T13:30:30;20.10;72.70
39017;DHT22;24784;45.582;5.276;2024-03-22T13:32:56;20.00;71.10
39017;DHT22;24784;45.582;5.276;2024-03-22T13:35:22;20.00;72.10
39017;DHT22;24784;45.582;5.276;2024-03-22T13:37:48;20.10;73.90
39017;DHT22;24784;45.582;5.276;2024-03-22T13:40:14;20.30;73.80
39017;DHT22;24784;45.582;5.276;2024-03-22T13:42:40;20.40;73.10
39017;DHT22;24784;45.582;5.276;2024-03-22T13:45:06;20.50;75.70
39017;DHT22;24784;45.582;5.276;2024-03-22T13:47:32;20.70;74.20
39017;DHT22;24784;45.582;5.276;2024-03-22T13:49:58;20.60;73.80
39017;DHT22;24784;45.582;5.276;2024-03-22T13:52:23;20.70;73.30
39017;DHT22;24784;45.582;5.276;2024-03-22T13:54:49;20.80;73.70
39017;DHT22;24784;45.582;5.276;2024-03-22T13:57:18;20.60;72.40
39017;DHT22;24784;45.582;5.276;2024-03-22T13:59:44;20.60;72.90
39017;DHT22;24784;45.582;5.276;2024-03-22T14:02:09;20.80;73.30
39017;DHT22;24784;45.582;5.276;2024-03-22T14:04:35;20.70;73.20
39017;DHT22;24784;45.582;5.276;2024-03-22T14:07:01;20.70;73.20
39017;DHT22;24784;45.582;5.276;2024-03-22T14:09:33;20.90;73.80
39017;DHT22;24784;45.582;5.276;2024-03-22T14:11:58;21.10;73.10
39017;DHT22;24784;45.582;5.276;2024-03-22T14:14:25;21.00;72.30
39017;DHT22;24784;45.582;5.276;2024-03-22T14:16:51;21.00;72.80
39017;DHT22;24784;45.582;5.276;2024-03-22T14:19:17;21.00;73.40
39017;DHT22;24784;45.582;5.276;2024-03-22T14:21:45;21.10;74.60
39017;DHT22;24784;45.582;5.276;2024-03-22T14:24:12;21.20;74.20
39017;DHT22;24784;45.582;5.276;2024-03-22T14:26:37;21.20;74.10
39017;DHT22;24784;45.582;5.276;2024-03-22T14:29:08;21.30;73.20
39017;DHT22;24784;45.582;5.276;2024-03-22T14:31:34;21.30;73.20
39017;DHT22;24784;45.582;5.276;2024-03-22T14:34:00;21.20;72.80
39017;DHT22;24784;45.582;5.276;2024-03-22T14:36:25;21.30;73.30
39017;DHT22;24784;45.582;5.276;2024-03-22T14:38:51;21.40;74.10
39017;DHT22;24784;45.582;5.276;2024-03-22T14:41:17;21.40;73.50
39017;DHT22;24784;45.582;5.276;2024-03-22T14:43:43;21.40;73.40
39017;DHT22;24784;45.582;5.276;2024-03-22T14:46:08;21.40;73.90
39017;DHT22;24784;45.582;5.276;2024-03-22T14:48:34;21.30;72.60
39017;DHT22;24784;45.582;5.276;2024-03-22T14:51:00;21.10;73.90
39017;DHT22;24784;45.582;5.276;2024-03-22T14:53:26;21.20;73.00
39017;DHT22;24784;45.582;5.276;2024-03-22T14:55:59;21.20;73.80
39017;DHT22;24784;45.582;5.276;2024-03-22T14:58:29;21.10;72.80
39017;DHT22;24784;45.582;5.276;2024-03-22T15:00:57;21.10;74.10
39017;DHT22;24784;45.582;5.276;2024-03-22T15:03:23;21.20;72.80
39017;DHT22;24784;45.582;5.276;2024-03-22T15:05:53;21.20;73.20
39017;DHT22;24784;45.582;5.276;2024-03-22T15:08:20;21.00;72.50
39017;DHT22;24784;45.582;5.276;2024-03-22T15:10:46;21.20;73.40
39017;DHT22;24784;45.582;5.276;2024-03-22T15:13:13;21.00;72.20
39017;DHT22;24784;45.582;5.276;2024-03-22T15:15:39;21.10;72.40
39017;DHT22;24784;45.582;5.276;2024-03-22T15:18:05;21.20;72.90
39017;DHT22;24784;45.582;5.276;2024-03-22T15:20:31;21.40;72.40
39017;DHT22;24784;45.582;5.276;2024-03-22T15:22:58;21.50;72.90
39017;DHT22;24784;45.582;5.276;2024-03-22T15:25:23;21.50;72.70